createdAt,value
2022-11-05T00:00:37.584Z,38.45
2022-11-05T00:03:23.645Z,34.22
2022-11-05T00:06:12.503Z,40.30
2022-11-05T00:08:59.956Z,31.35
2022-11-05T00:11:46.962Z,37.80
2022-11-05T00:14:33.111Z,37.45
2022-11-05T00:17:00.140Z,30.42
2022-11-05T00:19:27.242Z,29.10
2022-11-05T00:22:12.534Z,34.50
2022-11-05T00:25:09.126Z,31.00
2022-11-05T00:27:36.211Z,31.88
2022-11-05T00:30:06.247Z,37.38
2022-11-05T00:32:33.986Z,29.58
2022-11-05T00:35:01.069Z,35.15
2022-11-05T00:37:28.749Z,36.25
2022-11-05T00:39:55.756Z,36.70
2022-11-05T00:42:41.202Z,27.30
2022-11-05T00:45:08.866Z,40.20
2022-11-05T00:47:54.087Z,31.30
2022-11-05T00:50:22.436Z,27.50
2022-11-05T00:52:57.421Z,33.17
2022-11-05T00:55:34.649Z,32.78
2022-11-05T00:58:03.474Z,35.95
2022-11-05T01:00:31.649Z,32.38
2022-11-05T01:03:04.470Z,31.02
2022-11-05T01:05:33.110Z,31.60
2022-11-05T01:08:00.497Z,34.70
2022-11-05T01:10:28.258Z,24.50
2022-11-05T01:12:55.752Z,29.90
2022-11-05T01:15:23.158Z,31.60
2022-11-05T01:17:51.595Z,26.48
2022-11-05T01:20:18.753Z,36.65
2022-11-05T01:22:45.700Z,31.70
2022-11-05T01:25:12.729Z,28.60
2022-11-05T01:27:40.034Z,31.08
2022-11-05T01:30:09.059Z,31.88
2022-11-05T01:32:37.271Z,30.50
2022-11-05T01:35:09.276Z,29.52
2022-11-05T01:37:36.616Z,30.95
2022-11-05T01:40:04.108Z,34.55
2022-11-05T01:42:32.408Z,40.60
2022-11-05T01:45:21.403Z,30.60
2022-11-05T01:48:17.142Z,27.52
2022-11-05T01:50:58.402Z,32.22
2022-11-05T01:53:53.721Z,25.17
2022-11-05T01:56:26.834Z,41.47
2022-11-05T01:59:02.749Z,30.23
2022-11-05T02:01:30.040Z,31.35
2022-11-05T02:04:01.896Z,28.52
2022-11-05T02:06:30.392Z,26.40
2022-11-05T02:09:03.703Z,28.70
2022-11-05T02:11:30.992Z,32.88
2022-11-05T02:13:58.138Z,26.35
2022-11-05T02:16:47.907Z,36.38
2022-11-05T02:19:44.804Z,36.55
2022-11-05T02:22:57.142Z,25.98
2022-11-05T02:26:31.496Z,34.45
2022-11-05T02:29:39.012Z,27.38
2022-11-05T02:33:01.329Z,30.50
2022-11-05T02:36:11.050Z,30.30
2022-11-05T02:39:07.229Z,27.67
2022-11-05T02:41:47.084Z,34.50
2022-11-05T02:44:57.752Z,27.50
2022-11-05T02:50:35.383Z,34.33
2022-11-05T02:58:52.745Z,31.35
2022-11-05T03:01:20.487Z,42.40
2022-11-05T03:03:57.834Z,29.60
2022-11-05T03:10:05.633Z,36.63
2022-11-05T03:13:11.998Z,36.17
2022-11-05T03:15:57.061Z,35.50
2022-11-05T03:18:47.792Z,29.35
2022-11-05T03:21:24.162Z,36.78
2022-11-05T03:24:08.664Z,31.15
2022-11-05T03:26:54.934Z,29.15
2022-11-05T03:29:27.256Z,34.33
2022-11-05T03:31:57.852Z,36.60
2022-11-05T03:34:29.600Z,41.67
2022-11-05T03:36:58.250Z,43.05
2022-11-05T03:39:39.515Z,32.70
2022-11-05T03:44:39.253Z,36.53
2022-11-05T03:47:14.277Z,30.25
2022-11-05T03:49:53.020Z,31.88
2022-11-05T03:52:24.179Z,31.65
2022-11-05T03:54:51.260Z,35.50
2022-11-05T03:57:32.765Z,30.13
2022-11-05T03:59:59.821Z,34.10
2022-11-05T04:02:27.685Z,28.85
2022-11-05T04:04:55.481Z,33.65
2022-11-05T04:07:41.259Z,28.58
2022-11-05T04:10:27.951Z,40.42
2022-11-05T04:13:13.768Z,32.28
2022-11-05T04:15:59.385Z,37.80
2022-11-05T04:18:26.717Z,29.48
2022-11-05T04:21:12.222Z,37.53
2022-11-05T04:23:57.650Z,31.77
2022-11-05T04:26:24.671Z,31.55
2022-11-05T04:29:10.751Z,30.75
2022-11-05T04:31:38.498Z,39.03
2022-11-05T04:34:05.638Z,35.85
2022-11-05T04:36:32.641Z,33.67
2022-11-05T04:38:59.590Z,36.45
2022-11-05T04:41:26.848Z,36.25
2022-11-05T04:43:53.906Z,36.75
2022-11-05T04:46:21.079Z,35.33
2022-11-05T04:48:48.093Z,44.90
2022-11-05T04:51:15.185Z,35.60
2022-11-05T04:53:42.296Z,38.65
2022-11-05T04:56:19.705Z,40.95
2022-11-05T04:58:46.888Z,33.92
2022-11-05T05:01:18.989Z,34.50
2022-11-05T05:03:50.464Z,35.50
2022-11-05T05:06:18.879Z,29.55
2022-11-05T05:08:50.444Z,31.08
2022-11-05T05:11:20.116Z,29.92
2022-11-05T05:13:47.861Z,27.98
2022-11-05T05:16:26.249Z,39.92
2022-11-05T05:18:54.895Z,33.78
2022-11-05T05:21:41.730Z,44.13
2022-11-05T05:24:13.776Z,40.13
2022-11-05T05:26:43.588Z,41.15
2022-11-05T05:29:12.160Z,33.50
2022-11-05T05:31:39.750Z,33.05
2022-11-05T05:34:07.897Z,33.15
2022-11-05T05:36:34.936Z,45.38
2022-11-05T05:39:04.766Z,47.50
2022-11-05T05:41:31.865Z,51.97
2022-11-05T05:43:58.924Z,41.63
2022-11-05T05:46:25.940Z,43.58
2022-11-05T05:48:52.961Z,36.67
2022-11-05T05:51:20.348Z,29.42
2022-11-05T05:53:47.468Z,27.88
2022-11-05T05:56:15.473Z,24.85
2022-11-05T05:58:42.710Z,26.67
2022-11-05T06:01:18.971Z,19.13
2022-11-05T06:03:47.704Z,41.85
2022-11-05T06:06:19.925Z,32.13
2022-11-05T06:08:47.653Z,52.50
2022-11-05T06:11:14.906Z,33.08
2022-11-05T06:13:41.894Z,26.90
2022-11-05T06:16:09.866Z,34.53
2022-11-05T06:18:37.291Z,34.42
2022-11-05T06:21:06.234Z,38.88
2022-11-05T06:23:34.868Z,39.35
2022-11-05T06:26:07.715Z,41.10
2022-11-05T06:28:35.640Z,44.72
2022-11-05T06:31:02.665Z,40.45
2022-11-05T06:33:29.686Z,53.25
2022-11-05T06:36:00.667Z,43.20
2022-11-05T06:38:29.426Z,37.58
2022-11-05T06:40:58.953Z,39.75
2022-11-05T06:43:26.809Z,39.58
2022-11-05T06:45:54.001Z,45.95
2022-11-05T06:48:21.009Z,53.65
2022-11-05T06:50:48.115Z,56.95
2022-11-05T06:53:15.269Z,60.05
2022-11-05T06:55:42.374Z,45.20
2022-11-05T06:58:09.301Z,50.90
2022-11-05T07:00:36.598Z,53.38
2022-11-05T07:03:08.360Z,47.63
2022-11-05T07:05:39.192Z,47.05
2022-11-05T07:08:06.706Z,54.22
2022-11-05T07:10:34.030Z,48.90
2022-11-05T07:13:05.131Z,40.65
2022-11-05T07:15:35.028Z,47.83
2022-11-05T07:18:02.451Z,47.25
2022-11-05T07:20:33.901Z,45.63
2022-11-05T07:23:06.740Z,39.90
2022-11-05T07:25:34.705Z,43.10
2022-11-05T07:28:03.325Z,40.15
2022-11-05T07:30:31.875Z,32.88
2022-11-05T07:32:59.122Z,39.42
2022-11-05T07:35:26.195Z,34.05
2022-11-05T07:37:54.791Z,40.08
2022-11-05T07:40:23.613Z,48.35
2022-11-05T07:42:56.017Z,41.00
2022-11-05T07:45:23.708Z,42.40
2022-11-05T07:47:53.232Z,44.63
2022-11-05T07:50:22.814Z,73.00
2022-11-05T07:52:50.555Z,46.50
2022-11-05T07:55:19.360Z,32.33
2022-11-05T07:57:51.144Z,31.52
2022-11-05T08:00:21.844Z,39.33
2022-11-05T08:03:09.326Z,41.08
2022-11-05T08:05:38.847Z,36.83
2022-11-05T08:08:08.366Z,46.38
2022-11-05T08:10:36.246Z,37.33
2022-11-05T08:13:04.200Z,39.15
2022-11-05T08:15:31.192Z,38.53
2022-11-05T08:18:04.147Z,33.75
2022-11-05T08:20:31.539Z,33.15
2022-11-05T08:22:58.677Z,34.90
2022-11-05T08:25:26.196Z,39.92
2022-11-05T08:28:01.453Z,35.30
2022-11-05T08:30:28.934Z,36.72
2022-11-05T08:33:01.095Z,32.97
2022-11-05T08:35:29.164Z,28.33
2022-11-05T08:38:00.895Z,33.42
2022-11-05T08:40:28.126Z,36.15
2022-11-05T08:42:58.381Z,25.45
2022-11-05T08:45:28.523Z,31.47
2022-11-05T08:48:10.500Z,42.97
2022-11-05T08:50:37.981Z,32.88
2022-11-05T08:53:06.248Z,46.55
2022-11-05T08:55:33.450Z,50.83
2022-11-05T08:58:02.806Z,34.58
2022-11-05T09:00:32.075Z,27.52
2022-11-05T09:03:01.257Z,35.20
2022-11-05T09:05:29.464Z,37.10
2022-11-05T09:08:00.885Z,31.00
2022-11-05T09:10:28.870Z,27.17
2022-11-05T09:12:56.064Z,29.08
2022-11-05T09:15:23.674Z,35.67
2022-11-05T09:17:51.165Z,37.65
2022-11-05T09:20:18.112Z,36.30
2022-11-05T09:22:46.455Z,27.88
2022-11-05T09:25:15.471Z,40.25
2022-11-05T09:27:43.268Z,33.90
2022-11-05T09:30:11.809Z,26.17
2022-11-05T09:32:39.002Z,26.13
2022-11-05T09:35:06.349Z,28.30
2022-11-05T09:37:33.450Z,27.88
2022-11-05T09:40:00.572Z,35.53
2022-11-05T09:42:38.103Z,29.70
2022-11-05T09:45:27.532Z,36.10
2022-11-05T09:48:03.456Z,40.00
2022-11-05T09:50:38.339Z,34.97
2022-11-05T09:53:05.570Z,34.10
2022-11-05T09:55:43.934Z,30.65
2022-11-05T09:58:18.994Z,40.97
2022-11-05T10:00:49.032Z,31.90
2022-11-05T10:03:20.580Z,28.83
2022-11-05T10:05:50.170Z,38.50
2022-11-05T10:08:27.406Z,30.75
2022-11-05T10:10:56.345Z,30.85
2022-11-05T10:13:46.272Z,33.17
2022-11-05T10:16:31.207Z,28.27
2022-11-05T10:19:25.807Z,23.35
2022-11-05T10:22:09.966Z,30.70
2022-11-05T10:24:38.201Z,26.20
2022-11-05T10:27:05.980Z,31.25
2022-11-05T10:29:35.287Z,22.55
2022-11-05T10:32:05.938Z,35.42
2022-11-05T10:34:37.108Z,26.30
2022-11-05T10:37:04.586Z,31.48
2022-11-05T10:39:34.028Z,26.42
2022-11-05T10:42:40.213Z,27.08
2022-11-05T10:45:34.040Z,37.38
2022-11-05T10:48:43.888Z,24.15
2022-11-05T10:51:12.099Z,30.17
2022-11-05T10:53:40.090Z,27.30
2022-11-05T10:56:28.633Z,27.02
2022-11-05T10:58:58.348Z,35.45
2022-11-05T11:01:26.568Z,36.67
2022-11-05T11:04:17.439Z,29.50
2022-11-05T11:06:49.860Z,26.95
2022-11-05T11:09:22.738Z,31.25
2022-11-05T11:12:06.614Z,29.80
2022-11-05T11:14:35.346Z,29.45
2022-11-05T11:17:38.319Z,27.45
2022-11-05T11:20:31.776Z,25.58
2022-11-05T11:23:14.375Z,24.02
2022-11-05T11:26:08.504Z,30.85
2022-11-05T11:28:39.908Z,24.55
2022-11-05T11:31:14.293Z,30.25
2022-11-05T11:33:44.890Z,22.85
2022-11-05T11:36:13.288Z,28.65
2022-11-05T11:38:41.006Z,26.00
2022-11-05T11:41:31.537Z,22.65
2022-11-05T11:44:16.479Z,28.50
2022-11-05T11:46:48.700Z,24.52
2022-11-05T11:50:00.221Z,19.85
2022-11-05T11:52:36.457Z,29.38
2022-11-05T11:55:32.455Z,20.90
2022-11-05T11:58:07.760Z,27.27
2022-11-05T12:00:42.782Z,22.13
2022-11-05T12:03:32.067Z,20.15
2022-11-05T12:06:15.844Z,35.80
2022-11-05T12:09:06.715Z,30.88
2022-11-05T12:11:46.465Z,26.45
2022-11-05T12:14:52.724Z,24.23
2022-11-05T12:18:15.004Z,21.58
2022-11-05T12:21:07.237Z,19.70
2022-11-05T12:24:08.567Z,23.55
2022-11-05T12:27:05.704Z,18.58
2022-11-05T12:30:03.290Z,22.92
2022-11-05T12:32:44.344Z,30.58
2022-11-05T12:35:57.553Z,22.95
2022-11-05T12:39:03.340Z,22.85
2022-11-05T12:41:40.191Z,23.95
2022-11-05T12:47:57.615Z,22.30
2022-11-05T12:50:47.334Z,16.80
2022-11-05T12:53:42.645Z,26.60
2022-11-05T12:59:24.875Z,13.40
2022-11-05T13:02:00.632Z,27.40
2022-11-05T13:04:51.605Z,16.05
2022-11-05T13:07:24.114Z,18.08
2022-11-05T13:10:07.738Z,20.98
2022-11-05T13:12:39.355Z,26.45
2022-11-05T13:15:34.046Z,24.35
2022-11-05T13:18:11.705Z,29.98
2022-11-05T13:20:42.457Z,17.48
2022-11-05T13:23:31.456Z,23.40
2022-11-05T13:26:05.869Z,22.20
2022-11-05T13:29:14.682Z,30.02
2022-11-05T13:31:47.490Z,19.38
2022-11-05T13:34:14.524Z,23.30
2022-11-05T13:37:16.927Z,25.17
2022-11-05T13:39:57.406Z,25.45
2022-11-05T13:43:07.732Z,17.90
2022-11-05T13:46:30.144Z,17.57
2022-11-05T13:49:52.070Z,21.25
2022-11-05T13:53:15.080Z,20.08
2022-11-05T13:56:24.786Z,14.82
2022-11-05T14:02:26.660Z,18.55
2022-11-05T14:05:00.950Z,26.27
2022-11-05T14:07:32.076Z,32.53
2022-11-05T14:10:14.897Z,32.63
2022-11-05T14:12:48.336Z,23.58
2022-11-05T14:15:23.277Z,29.65
2022-11-05T14:18:18.651Z,33.53
2022-11-05T14:21:00.376Z,24.23
2022-11-05T14:23:37.572Z,25.30
2022-11-05T14:26:31.783Z,31.17
2022-11-05T14:29:25.016Z,39.38
2022-11-05T14:32:13.335Z,32.10
2022-11-05T14:35:35.995Z,44.58
2022-11-05T14:38:05.188Z,40.05
2022-11-05T14:40:42.421Z,35.83
2022-11-05T14:43:22.861Z,35.75
2022-11-05T14:46:00.998Z,44.10
2022-11-05T14:48:38.303Z,29.02
2022-11-05T14:51:44.274Z,47.80
2022-11-05T14:54:42.918Z,32.20
2022-11-05T14:57:14.676Z,36.45
2022-11-05T15:00:01.319Z,48.78
2022-11-05T15:02:35.473Z,48.67
2022-11-05T15:05:37.121Z,52.65
2022-11-05T15:08:44.535Z,55.83
2022-11-05T15:11:20.618Z,39.20
2022-11-05T15:14:17.501Z,27.83
2022-11-05T15:16:49.684Z,56.10
2022-11-05T15:19:21.936Z,67.78
2022-11-05T15:21:50.911Z,67.40
2022-11-05T15:24:28.790Z,84.25
2022-11-05T15:27:22.971Z,90.75
2022-11-05T15:29:50.215Z,79.30
2022-11-05T15:32:19.488Z,62.13
2022-11-05T15:34:55.279Z,56.30
2022-11-05T15:37:26.130Z,86.13
2022-11-05T15:39:55.920Z,55.47
2022-11-05T15:42:28.791Z,37.88
2022-11-05T15:44:58.018Z,36.25
2022-11-05T15:47:30.272Z,29.75
2022-11-05T15:50:23.196Z,30.60
2022-11-05T15:52:52.426Z,32.72
2022-11-05T15:55:25.213Z,39.15
2022-11-05T15:58:07.134Z,34.95
2022-11-05T16:00:36.736Z,33.92
2022-11-05T16:03:39.179Z,42.92
2022-11-05T16:06:09.653Z,34.78
2022-11-05T16:08:36.788Z,28.90
2022-11-05T16:11:04.363Z,30.75
2022-11-05T16:13:42.098Z,34.97
2022-11-05T16:16:35.517Z,35.20
2022-11-05T16:19:22.352Z,28.27
2022-11-05T16:21:55.702Z,33.88
2022-11-05T16:24:29.076Z,40.67
2022-11-05T16:27:03.019Z,28.60
2022-11-05T16:29:36.625Z,33.20
2022-11-05T16:32:14.738Z,38.97
2022-11-05T16:34:46.655Z,33.58
2022-11-05T16:37:17.964Z,32.67
2022-11-05T16:39:45.529Z,31.65
2022-11-05T16:42:48.473Z,37.05
2022-11-05T16:45:16.931Z,30.48
2022-11-05T16:47:44.862Z,34.50
2022-11-05T16:50:41.104Z,33.47
2022-11-05T16:53:08.218Z,23.65
2022-11-05T16:55:37.889Z,43.08
2022-11-05T16:58:05.215Z,40.25
2022-11-05T17:00:32.405Z,43.22
2022-11-05T17:02:59.450Z,35.08
2022-11-05T17:05:29.499Z,34.30
2022-11-05T17:07:57.422Z,41.38
2022-11-05T17:10:26.000Z,46.75
2022-11-05T17:12:53.682Z,34.50
2022-11-05T17:15:25.069Z,30.08
2022-11-05T17:17:53.540Z,31.10
2022-11-05T17:20:51.776Z,34.63
2022-11-05T17:23:20.945Z,35.33
2022-11-05T17:25:51.168Z,39.88
2022-11-05T17:28:19.015Z,30.27
2022-11-05T17:30:52.233Z,32.30
2022-11-05T17:33:20.867Z,31.15
2022-11-05T17:35:48.426Z,29.77
2022-11-05T17:38:15.513Z,27.85
2022-11-05T17:40:42.459Z,34.33
2022-11-05T17:43:10.239Z,39.90
2022-11-05T17:45:46.143Z,26.90
2022-11-05T17:48:14.218Z,31.55
2022-11-05T17:50:51.720Z,31.83
2022-11-05T17:53:19.614Z,25.52
2022-11-05T17:55:47.634Z,33.47
2022-11-05T17:58:14.768Z,27.98
2022-11-05T18:00:42.932Z,33.45
2022-11-05T18:03:11.156Z,35.53
2022-11-05T18:05:40.172Z,32.22
2022-11-05T18:08:07.882Z,34.30
2022-11-05T18:10:39.003Z,48.25
2022-11-05T18:15:33.421Z,33.50
2022-11-05T18:18:00.380Z,37.55
2022-11-05T18:20:27.592Z,39.83
2022-11-05T18:22:54.633Z,31.25
2022-11-05T18:25:21.908Z,35.40
2022-11-05T18:27:48.902Z,40.20
2022-11-05T18:30:16.102Z,42.03
2022-11-05T18:32:44.966Z,39.50
2022-11-05T18:35:13.554Z,32.28
2022-11-05T18:37:40.907Z,35.17
2022-11-05T18:40:08.803Z,33.72
2022-11-05T18:42:36.000Z,32.90
2022-11-05T18:45:04.409Z,31.40
2022-11-05T18:47:32.704Z,23.65
2022-11-05T18:50:00.535Z,40.72
2022-11-05T18:52:28.846Z,32.65
2022-11-05T18:54:55.967Z,23.80
2022-11-05T18:57:23.150Z,34.30
2022-11-05T18:59:50.200Z,31.70
2022-11-05T19:02:17.490Z,36.50
2022-11-05T19:05:00.700Z,27.48
2022-11-05T19:07:32.529Z,32.42
2022-11-05T19:09:59.668Z,25.02
2022-11-05T19:12:26.661Z,30.50
2022-11-05T19:14:57.959Z,28.40
2022-11-05T19:17:28.071Z,24.85
2022-11-05T19:19:55.685Z,26.48
2022-11-05T19:22:22.794Z,26.30
2022-11-05T19:24:49.826Z,36.03
2022-11-05T19:27:17.079Z,33.70
2022-11-05T19:29:44.029Z,31.95
2022-11-05T19:32:11.217Z,38.10
2022-11-05T19:34:38.181Z,27.38
2022-11-05T19:37:08.198Z,23.35
2022-11-05T19:39:35.994Z,32.70
2022-11-05T19:42:03.779Z,26.00
2022-11-05T19:44:31.314Z,26.88
2022-11-05T19:46:58.577Z,26.33
2022-11-05T19:49:28.250Z,26.13
2022-11-05T19:51:55.902Z,29.08
2022-11-05T19:54:23.051Z,29.92
2022-11-05T19:56:52.034Z,36.28
2022-11-05T19:59:19.565Z,25.30
2022-11-05T20:01:46.881Z,29.08
2022-11-05T20:04:14.203Z,24.10
2022-11-05T20:06:41.318Z,30.45
2022-11-05T20:09:27.459Z,29.88
2022-11-05T20:11:56.632Z,37.67
2022-11-05T20:14:25.266Z,28.67
2022-11-05T20:16:53.235Z,25.83
2022-11-05T20:19:22.264Z,32.58
2022-11-05T20:21:49.395Z,28.50
2022-11-05T20:24:24.311Z,31.65
2022-11-05T20:26:54.075Z,27.88
2022-11-05T20:29:22.268Z,33.80
2022-11-05T20:31:50.296Z,31.65
2022-11-05T20:34:17.369Z,32.95
2022-11-05T20:36:44.475Z,30.25
2022-11-05T20:39:12.209Z,27.00
2022-11-05T20:41:39.343Z,27.20
2022-11-05T20:44:06.443Z,27.90
2022-11-05T20:46:33.479Z,29.55
2022-11-05T20:49:00.488Z,25.30
2022-11-05T20:51:27.478Z,26.63
2022-11-05T20:53:59.962Z,30.50
2022-11-05T20:56:37.368Z,30.88
2022-11-05T20:59:05.690Z,28.55
2022-11-05T21:01:34.064Z,21.63
2022-11-05T21:04:01.982Z,27.73
2022-11-05T21:06:29.096Z,28.35
2022-11-05T21:08:56.515Z,31.80
2022-11-05T21:11:24.108Z,37.67
2022-11-05T21:13:51.131Z,28.17
2022-11-05T21:16:19.746Z,32.83
2022-11-05T21:18:47.689Z,37.53
2022-11-05T21:21:17.998Z,37.10
2022-11-05T21:23:45.041Z,36.80
2022-11-05T21:26:14.894Z,37.85
2022-11-05T21:28:41.944Z,31.85
2022-11-05T21:31:09.570Z,33.42
2022-11-05T21:33:36.974Z,26.67
2022-11-05T21:36:09.132Z,30.23
2022-11-05T21:38:36.414Z,30.23
2022-11-05T21:41:04.759Z,33.95
2022-11-05T21:43:32.035Z,28.25
2022-11-05T21:46:04.507Z,32.47
2022-11-05T21:48:32.387Z,29.10
2022-11-05T21:51:17.947Z,25.52
2022-11-05T21:54:03.379Z,30.83
2022-11-05T21:56:50.017Z,32.60
2022-11-05T21:59:38.582Z,34.70
2022-11-05T22:02:07.752Z,31.55
2022-11-05T22:04:37.579Z,28.50
2022-11-05T22:07:05.723Z,28.13
2022-11-05T22:09:33.002Z,29.40
2022-11-05T22:12:01.195Z,25.48
2022-11-05T22:14:28.363Z,22.75
2022-11-05T22:16:55.600Z,23.70
2022-11-05T22:19:23.536Z,28.35
2022-11-05T22:21:50.781Z,28.50
2022-11-05T22:24:18.357Z,28.52
2022-11-05T22:26:45.955Z,32.05
2022-11-05T22:29:13.380Z,31.33
2022-11-05T22:31:40.587Z,25.77
2022-11-05T22:34:09.756Z,25.80
2022-11-05T22:36:36.740Z,25.90
2022-11-05T22:39:05.339Z,27.52
2022-11-05T22:41:32.487Z,30.98
2022-11-05T22:43:59.486Z,35.55
2022-11-05T22:46:27.597Z,35.95
2022-11-05T22:48:56.366Z,29.05
2022-11-05T22:51:29.923Z,32.95
2022-11-05T22:53:57.935Z,23.35
2022-11-05T22:56:27.779Z,34.75
2022-11-05T22:58:55.199Z,24.80
2022-11-05T23:01:23.436Z,29.45
2022-11-05T23:03:52.775Z,30.15
2022-11-05T23:06:49.667Z,26.38
2022-11-05T23:09:37.864Z,31.67
2022-11-05T23:12:09.074Z,31.33
2022-11-05T23:17:22.723Z,27.40
2022-11-05T23:20:08.311Z,24.13
2022-11-05T23:22:53.706Z,26.65
2022-11-05T23:25:23.316Z,24.50
2022-11-05T23:27:52.065Z,29.02
2022-11-05T23:30:24.934Z,30.38
2022-11-05T23:32:53.264Z,32.45
2022-11-05T23:35:43.238Z,30.38
2022-11-05T23:38:29.075Z,29.42
2022-11-05T23:41:21.771Z,27.45
2022-11-05T23:44:07.244Z,29.40
2022-11-05T23:46:52.913Z,33.08
2022-11-05T23:49:20.172Z,31.10
2022-11-05T23:51:47.231Z,29.02
2022-11-05T23:54:14.138Z,29.58
2022-11-05T23:56:41.127Z,35.25
2022-11-05T23:59:08.304Z,35.58
